sensor_id;sensor_type;location;lat;lon;timestamp;P1;durP1;ratioP1;P2;durP2;ratioP2
28920;SDS011;16035;53.594;9.952;2022-10-31T00:01:28;46.27;;;26.63;;
28920;SDS011;16035;53.594;9.952;2022-10-31T00:03:30;42.17;;;21.83;;
28920;SDS011;16035;53.594;9.952;2022-10-31T00:05:31;32.80;;;17.77;;
28920;SDS011;16035;53.594;9.952;2022-10-31T00:07:31;27.97;;;15.80;;
28920;SDS011;16035;53.594;9.952;2022-10-31T00:09:31;31.33;;;14.47;;
28920;SDS011;16035;53.594;9.952;2022-10-31T00:11:32;19.57;;;13.47;;
28920;SDS011;16035;53.594;9.952;2022-10-31T00:13:32;28.87;;;13.33;;
28920;SDS011;16035;53.594;9.952;2022-10-31T00:15:39;18.13;;;11.90;;
28920;SDS011;16035;53.594;9.952;2022-10-31T00:17:40;20.10;;;11.80;;
28920;SDS011;16035;53.594;9.952;2022-10-31T00:19:40;20.80;;;12.13;;
28920;SDS011;16035;53.594;9.952;2022-10-31T00:21:40;21.07;;;13.47;;
28920;SDS011;16035;53.594;9.952;2022-10-31T00:23:41;21.17;;;11.07;;
28920;SDS011;16035;53.594;9.952;2022-10-31T00:25:41;21.30;;;11.03;;
28920;SDS011;16035;53.594;9.952;2022-10-31T00:27:41;23.10;;;11.37;;
28920;SDS011;16035;53.594;9.952;2022-10-31T00:29:42;18.30;;;10.33;;
28920;SDS011;16035;53.594;9.952;2022-10-31T00:31:42;16.43;;;9.90;;
28920;SDS011;16035;53.594;9.952;2022-10-31T00:33:42;18.10;;;11.20;;
28920;SDS011;16035;53.594;9.952;2022-10-31T00:35:43;15.40;;;10.30;;
28920;SDS011;16035;53.594;9.952;2022-10-31T00:37:49;19.73;;;10.75;;
28920;SDS011;16035;53.594;9.952;2022-10-31T00:39:50;16.60;;;10.40;;
28920;SDS011;16035;53.594;9.952;2022-10-31T00:41:50;22.50;;;11.40;;
28920;SDS011;16035;53.594;9.952;2022-10-31T00:43:50;24.23;;;13.07;;
28920;SDS011;16035;53.594;9.952;2022-10-31T00:45:51;17.37;;;10.47;;
28920;SDS011;16035;53.594;9.952;2022-10-31T00:47:51;18.93;;;11.37;;
28920;SDS011;16035;53.594;9.952;2022-10-31T00:49:51;18.10;;;10.37;;
28920;SDS011;16035;53.594;9.952;2022-10-31T00:51:52;22.47;;;11.50;;
28920;SDS011;16035;53.594;9.952;2022-10-31T00:53:52;19.60;;;11.07;;
28920;SDS011;16035;53.594;9.952;2022-10-31T00:55:52;24.27;;;12.30;;
28920;SDS011;16035;53.594;9.952;2022-10-31T00:57:53;27.50;;;12.17;;
28920;SDS011;16035;53.594;9.952;2022-10-31T00:59:53;21.43;;;11.77;;
28920;SDS011;16035;53.594;9.952;2022-10-31T01:01:53;24.13;;;12.43;;
28920;SDS011;16035;53.594;9.952;2022-10-31T01:03:53;23.00;;;11.50;;
28920;SDS011;16035;53.594;9.952;2022-10-31T01:07:58;22.30;;;11.55;;
28920;SDS011;16035;53.594;9.952;2022-10-31T01:09:59;23.00;;;12.23;;
28920;SDS011;16035;53.594;9.952;2022-10-31T01:11:59;22.33;;;12.70;;
28920;SDS011;16035;53.594;9.952;2022-10-31T01:13:59;21.83;;;13.20;;
28920;SDS011;16035;53.594;9.952;2022-10-31T01:16:00;27.10;;;13.77;;
28920;SDS011;16035;53.594;9.952;2022-10-31T01:20:02;35.47;;;16.03;;
28920;SDS011;16035;53.594;9.952;2022-10-31T01:22:03;29.27;;;16.35;;
28920;SDS011;16035;53.594;9.952;2022-10-31T01:24:04;33.10;;;15.63;;
28920;SDS011;16035;53.594;9.952;2022-10-31T01:26:11;25.53;;;14.97;;
28920;SDS011;16035;53.594;9.952;2022-10-31T01:28:13;34.60;;;16.10;;
28920;SDS011;16035;53.594;9.952;2022-10-31T01:30:14;28.80;;;14.63;;
28920;SDS011;16035;53.594;9.952;2022-10-31T01:32:14;24.17;;;14.17;;
28920;SDS011;16035;53.594;9.952;2022-10-31T01:34:15;25.17;;;14.47;;
28920;SDS011;16035;53.594;9.952;2022-10-31T01:38:21;27.08;;;14.18;;
28920;SDS011;16035;53.594;9.952;2022-10-31T01:42:23;22.60;;;13.60;;
28920;SDS011;16035;53.594;9.952;2022-10-31T01:46:24;29.93;;;15.27;;
28920;SDS011;16035;53.594;9.952;2022-10-31T01:48:29;30.02;;;15.57;;
28920;SDS011;16035;53.594;9.952;2022-10-31T01:50:32;26.23;;;14.60;;
28920;SDS011;16035;53.594;9.952;2022-10-31T01:52:38;31.13;;;15.15;;
28920;SDS011;16035;53.594;9.952;2022-10-31T01:54:59;26.02;;;14.45;;
28920;SDS011;16035;53.594;9.952;2022-10-31T01:57:03;25.35;;;14.45;;
28920;SDS011;16035;53.594;9.952;2022-10-31T01:59:06;25.55;;;14.68;;
28920;SDS011;16035;53.594;9.952;2022-10-31T02:01:10;27.67;;;14.98;;
28920;SDS011;16035;53.594;9.952;2022-10-31T02:03:14;30.15;;;14.98;;
28920;SDS011;16035;53.594;9.952;2022-10-31T02:05:17;28.08;;;16.48;;
28920;SDS011;16035;53.594;9.952;2022-10-31T02:07:27;23.20;;;14.60;;
28920;SDS011;16035;53.594;9.952;2022-10-31T02:09:33;30.98;;;15.45;;
28920;SDS011;16035;53.594;9.952;2022-10-31T02:11:36;26.38;;;15.20;;
28920;SDS011;16035;53.594;9.952;2022-10-31T02:13:37;29.70;;;15.40;;
28920;SDS011;16035;53.594;9.952;2022-10-31T02:15:37;27.87;;;16.40;;
28920;SDS011;16035;53.594;9.952;2022-10-31T02:22:12;30.23;;;15.77;;
28920;SDS011;16035;53.594;9.952;2022-10-31T02:24:33;27.60;;;16.30;;
28920;SDS011;16035;53.594;9.952;2022-10-31T02:26:54;28.00;;;14.98;;
28920;SDS011;16035;53.594;9.952;2022-10-31T02:29:10;31.25;;;15.93;;
28920;SDS011;16035;53.594;9.952;2022-10-31T02:34:01;23.88;;;13.88;;
28920;SDS011;16035;53.594;9.952;2022-10-31T02:38:23;35.00;;;18.52;;
28920;SDS011;16035;53.594;9.952;2022-10-31T02:40:30;36.95;;;17.63;;
28920;SDS011;16035;53.594;9.952;2022-10-31T02:42:41;26.75;;;16.58;;
28920;SDS011;16035;53.594;9.952;2022-10-31T02:47:06;28.05;;;16.33;;
28920;SDS011;16035;53.594;9.952;2022-10-31T02:49:23;32.88;;;18.08;;
28920;SDS011;16035;53.594;9.952;2022-10-31T02:51:28;36.80;;;18.35;;
28920;SDS011;16035;53.594;9.952;2022-10-31T02:53:35;31.83;;;18.13;;
28920;SDS011;16035;53.594;9.952;2022-10-31T02:57:37;38.73;;;17.87;;
28920;SDS011;16035;53.594;9.952;2022-10-31T02:59:46;31.83;;;16.15;;
28920;SDS011;16035;53.594;9.952;2022-10-31T03:10:53;31.52;;;17.00;;
28920;SDS011;16035;53.594;9.952;2022-10-31T03:13:10;28.90;;;15.38;;
28920;SDS011;16035;53.594;9.952;2022-10-31T03:15:17;28.27;;;16.35;;
28920;SDS011;16035;53.594;9.952;2022-10-31T03:17:23;35.00;;;16.73;;
28920;SDS011;16035;53.594;9.952;2022-10-31T03:19:39;33.65;;;18.40;;
28920;SDS011;16035;53.594;9.952;2022-10-31T03:22:04;33.90;;;17.75;;
28920;SDS011;16035;53.594;9.952;2022-10-31T03:24:18;32.17;;;17.23;;
28920;SDS011;16035;53.594;9.952;2022-10-31T03:26:21;38.08;;;19.00;;
28920;SDS011;16035;53.594;9.952;2022-10-31T03:28:24;29.00;;;16.30;;
28920;SDS011;16035;53.594;9.952;2022-10-31T03:30:29;37.25;;;18.88;;
28920;SDS011;16035;53.594;9.952;2022-10-31T03:34:41;31.73;;;17.70;;
28920;SDS011;16035;53.594;9.952;2022-10-31T03:36:43;35.50;;;17.35;;
28920;SDS011;16035;53.594;9.952;2022-10-31T03:38:46;35.47;;;18.45;;
28920;SDS011;16035;53.594;9.952;2022-10-31T03:40:47;34.58;;;19.15;;
28920;SDS011;16035;53.594;9.952;2022-10-31T03:42:51;34.15;;;17.60;;
28920;SDS011;16035;53.594;9.952;2022-10-31T03:45:10;31.63;;;17.75;;
28920;SDS011;16035;53.594;9.952;2022-10-31T03:47:14;35.00;;;18.42;;
28920;SDS011;16035;53.594;9.952;2022-10-31T03:49:15;38.90;;;19.20;;
28920;SDS011;16035;53.594;9.952;2022-10-31T03:51:20;36.15;;;19.45;;
28920;SDS011;16035;53.594;9.952;2022-10-31T03:53:27;38.33;;;17.05;;
28920;SDS011;16035;53.594;9.952;2022-10-31T03:55:38;34.88;;;18.40;;
28920;SDS011;16035;53.594;9.952;2022-10-31T04:02:14;39.53;;;21.75;;
28920;SDS011;16035;53.594;9.952;2022-10-31T04:04:18;44.92;;;21.10;;
28920;SDS011;16035;53.594;9.952;2022-10-31T04:06:19;44.13;;;23.45;;
28920;SDS011;16035;53.594;9.952;2022-10-31T04:08:23;44.80;;;21.60;;
28920;SDS011;16035;53.594;9.952;2022-10-31T04:10:28;39.85;;;19.10;;
28920;SDS011;16035;53.594;9.952;2022-10-31T04:14:31;37.15;;;18.92;;
28920;SDS011;16035;53.594;9.952;2022-10-31T04:16:35;44.08;;;20.17;;
28920;SDS011;16035;53.594;9.952;2022-10-31T04:18:35;44.20;;;21.20;;
28920;SDS011;16035;53.594;9.952;2022-10-31T04:20:36;46.47;;;21.80;;
28920;SDS011;16035;53.594;9.952;2022-10-31T04:22:39;36.58;;;19.88;;
28920;SDS011;16035;53.594;9.952;2022-10-31T04:24:39;33.53;;;18.47;;
28920;SDS011;16035;53.594;9.952;2022-10-31T04:26:40;38.22;;;21.25;;
28920;SDS011;16035;53.594;9.952;2022-10-31T04:28:40;46.77;;;21.37;;
28920;SDS011;16035;53.594;9.952;2022-10-31T04:30:41;38.40;;;19.57;;
28920;SDS011;16035;53.594;9.952;2022-10-31T04:32:41;43.93;;;21.47;;
28920;SDS011;16035;53.594;9.952;2022-10-31T04:34:41;35.57;;;18.60;;
28920;SDS011;16035;53.594;9.952;2022-10-31T04:36:42;33.30;;;19.77;;
28920;SDS011;16035;53.594;9.952;2022-10-31T04:38:42;28.83;;;16.97;;
28920;SDS011;16035;53.594;9.952;2022-10-31T04:40:42;38.23;;;18.00;;
28920;SDS011;16035;53.594;9.952;2022-10-31T04:42:42;39.87;;;20.07;;
28920;SDS011;16035;53.594;9.952;2022-10-31T04:44:43;35.97;;;19.57;;
28920;SDS011;16035;53.594;9.952;2022-10-31T04:46:43;41.27;;;22.23;;
28920;SDS011;16035;53.594;9.952;2022-10-31T04:48:43;48.80;;;22.90;;
28920;SDS011;16035;53.594;9.952;2022-10-31T04:50:44;46.23;;;21.40;;
28920;SDS011;16035;53.594;9.952;2022-10-31T04:52:45;33.07;;;17.27;;
28920;SDS011;16035;53.594;9.952;2022-10-31T04:54:46;45.97;;;22.42;;
28920;SDS011;16035;53.594;9.952;2022-10-31T04:56:46;40.77;;;19.83;;
28920;SDS011;16035;53.594;9.952;2022-10-31T04:58:46;34.23;;;18.27;;
28920;SDS011;16035;53.594;9.952;2022-10-31T05:00:47;47.20;;;20.93;;
28920;SDS011;16035;53.594;9.952;2022-10-31T05:02:48;45.83;;;20.53;;
28920;SDS011;16035;53.594;9.952;2022-10-31T05:04:49;38.20;;;20.58;;
28920;SDS011;16035;53.594;9.952;2022-10-31T05:06:50;47.07;;;21.43;;
28920;SDS011;16035;53.594;9.952;2022-10-31T05:08:50;43.00;;;21.00;;
28920;SDS011;16035;53.594;9.952;2022-10-31T05:10:50;42.03;;;21.20;;
28920;SDS011;16035;53.594;9.952;2022-10-31T05:12:52;38.42;;;19.83;;
28920;SDS011;16035;53.594;9.952;2022-10-31T05:14:57;41.10;;;19.90;;
28920;SDS011;16035;53.594;9.952;2022-10-31T05:16:57;43.57;;;20.17;;
28920;SDS011;16035;53.594;9.952;2022-10-31T05:18:58;42.50;;;20.53;;
28920;SDS011;16035;53.594;9.952;2022-10-31T05:20:58;30.63;;;14.38;;
28920;SDS011;16035;53.594;9.952;2022-10-31T05:23:02;37.97;;;18.55;;
28920;SDS011;16035;53.594;9.952;2022-10-31T05:25:02;40.43;;;19.47;;
28920;SDS011;16035;53.594;9.952;2022-10-31T05:27:03;35.65;;;17.55;;
28920;SDS011;16035;53.594;9.952;2022-10-31T05:29:03;39.53;;;18.63;;
28920;SDS011;16035;53.594;9.952;2022-10-31T05:31:04;44.37;;;19.67;;
28920;SDS011;16035;53.594;9.952;2022-10-31T05:33:04;41.47;;;20.03;;
28920;SDS011;16035;53.594;9.952;2022-10-31T05:35:05;38.07;;;18.57;;
28920;SDS011;16035;53.594;9.952;2022-10-31T05:37:10;47.10;;;18.52;;
28920;SDS011;16035;53.594;9.952;2022-10-31T05:39:10;40.13;;;19.07;;
28920;SDS011;16035;53.594;9.952;2022-10-31T05:41:11;43.50;;;19.63;;
28920;SDS011;16035;53.594;9.952;2022-10-31T05:43:11;37.20;;;19.43;;
28920;SDS011;16035;53.594;9.952;2022-10-31T05:45:13;39.30;;;19.70;;
28920;SDS011;16035;53.594;9.952;2022-10-31T05:47:15;42.03;;;20.15;;
28920;SDS011;16035;53.594;9.952;2022-10-31T05:49:15;45.73;;;22.03;;
28920;SDS011;16035;53.594;9.952;2022-10-31T05:51:17;44.08;;;19.58;;
28920;SDS011;16035;53.594;9.952;2022-10-31T05:53:17;50.57;;;21.10;;
28920;SDS011;16035;53.594;9.952;2022-10-31T05:55:18;38.90;;;21.07;;
28920;SDS011;16035;53.594;9.952;2022-10-31T05:57:18;49.47;;;21.27;;
28920;SDS011;16035;53.594;9.952;2022-10-31T05:59:18;38.87;;;20.90;;
28920;SDS011;16035;53.594;9.952;2022-10-31T06:01:18;42.43;;;19.63;;
28920;SDS011;16035;53.594;9.952;2022-10-31T06:03:19;50.90;;;19.80;;
28920;SDS011;16035;53.594;9.952;2022-10-31T06:05:19;42.10;;;21.47;;
28920;SDS011;16035;53.594;9.952;2022-10-31T06:07:19;37.47;;;19.23;;
28920;SDS011;16035;53.594;9.952;2022-10-31T06:09:20;38.03;;;18.40;;
28920;SDS011;16035;53.594;9.952;2022-10-31T06:11:20;41.97;;;18.60;;
28920;SDS011;16035;53.594;9.952;2022-10-31T06:13:20;40.17;;;18.27;;
28920;SDS011;16035;53.594;9.952;2022-10-31T06:15:21;36.57;;;17.33;;
28920;SDS011;16035;53.594;9.952;2022-10-31T06:17:22;37.85;;;17.92;;
28920;SDS011;16035;53.594;9.952;2022-10-31T06:19:22;38.77;;;18.43;;
28920;SDS011;16035;53.594;9.952;2022-10-31T06:21:23;33.77;;;18.20;;
28920;SDS011;16035;53.594;9.952;2022-10-31T06:23:23;36.47;;;17.77;;
28920;SDS011;16035;53.594;9.952;2022-10-31T06:25:23;39.27;;;18.23;;
28920;SDS011;16035;53.594;9.952;2022-10-31T06:27:24;34.53;;;16.80;;
28920;SDS011;16035;53.594;9.952;2022-10-31T06:29:24;37.83;;;17.90;;
28920;SDS011;16035;53.594;9.952;2022-10-31T06:31:25;39.07;;;18.43;;
28920;SDS011;16035;53.594;9.952;2022-10-31T06:33:25;34.77;;;17.27;;
28920;SDS011;16035;53.594;9.952;2022-10-31T06:35:25;37.50;;;18.47;;
28920;SDS011;16035;53.594;9.952;2022-10-31T06:37:26;37.77;;;17.77;;
28920;SDS011;16035;53.594;9.952;2022-10-31T06:39:26;37.60;;;18.57;;
28920;SDS011;16035;53.594;9.952;2022-10-31T06:41:26;39.43;;;18.43;;
28920;SDS011;16035;53.594;9.952;2022-10-31T06:43:27;35.97;;;16.70;;
28920;SDS011;16035;53.594;9.952;2022-10-31T06:45:27;34.30;;;17.23;;
28920;SDS011;16035;53.594;9.952;2022-10-31T06:47:28;36.85;;;17.48;;
28920;SDS011;16035;53.594;9.952;2022-10-31T06:49:28;41.70;;;18.83;;
28920;SDS011;16035;53.594;9.952;2022-10-31T06:51:28;34.37;;;18.00;;
28920;SDS011;16035;53.594;9.952;2022-10-31T06:53:29;34.73;;;17.07;;
28920;SDS011;16035;53.594;9.952;2022-10-31T06:55:29;31.83;;;18.00;;
28920;SDS011;16035;53.594;9.952;2022-10-31T06:57:30;36.03;;;18.77;;
28920;SDS011;16035;53.594;9.952;2022-10-31T06:59:30;39.37;;;17.70;;
28920;SDS011;16035;53.594;9.952;2022-10-31T07:01:30;36.43;;;17.30;;
28920;SDS011;16035;53.594;9.952;2022-10-31T07:03:31;31.73;;;17.90;;
28920;SDS011;16035;53.594;9.952;2022-10-31T07:05:31;37.83;;;17.67;;
28920;SDS011;16035;53.594;9.952;2022-10-31T07:07:32;27.38;;;15.20;;
28920;SDS011;16035;53.594;9.952;2022-10-31T07:09:32;34.43;;;16.83;;
28920;SDS011;16035;53.594;9.952;2022-10-31T07:11:33;33.60;;;16.10;;
28920;SDS011;16035;53.594;9.952;2022-10-31T07:13:33;41.10;;;18.53;;
28920;SDS011;16035;53.594;9.952;2022-10-31T07:15:34;32.70;;;17.67;;
28920;SDS011;16035;53.594;9.952;2022-10-31T07:17:36;33.95;;;18.02;;
28920;SDS011;16035;53.594;9.952;2022-10-31T07:19:36;37.90;;;17.30;;
28920;SDS011;16035;53.594;9.952;2022-10-31T07:21:37;32.30;;;16.83;;
28920;SDS011;16035;53.594;9.952;2022-10-31T07:23:37;32.73;;;16.80;;
28920;SDS011;16035;53.594;9.952;2022-10-31T07:25:38;37.50;;;17.70;;
28920;SDS011;16035;53.594;9.952;2022-10-31T07:29:40;30.90;;;16.55;;
28920;SDS011;16035;53.594;9.952;2022-10-31T07:31:40;28.87;;;15.70;;
28920;SDS011;16035;53.594;9.952;2022-10-31T07:33:41;27.77;;;14.87;;
28920;SDS011;16035;53.594;9.952;2022-10-31T07:35:41;28.83;;;16.10;;
28920;SDS011;16035;53.594;9.952;2022-10-31T07:37:41;29.87;;;15.40;;
28920;SDS011;16035;53.594;9.952;2022-10-31T07:39:42;25.57;;;14.53;;
28920;SDS011;16035;53.594;9.952;2022-10-31T07:41:42;26.97;;;14.17;;
28920;SDS011;16035;53.594;9.952;2022-10-31T07:43:43;26.10;;;15.07;;
28920;SDS011;16035;53.594;9.952;2022-10-31T07:45:43;26.27;;;14.07;;
28920;SDS011;16035;53.594;9.952;2022-10-31T07:47:48;23.73;;;13.73;;
28920;SDS011;16035;53.594;9.952;2022-10-31T07:49:50;27.23;;;14.63;;
28920;SDS011;16035;53.594;9.952;2022-10-31T07:51:50;26.17;;;14.37;;
28920;SDS011;16035;53.594;9.952;2022-10-31T07:53:51;25.60;;;14.43;;
28920;SDS011;16035;53.594;9.952;2022-10-31T07:55:51;21.77;;;13.10;;
28920;SDS011;16035;53.594;9.952;2022-10-31T07:57:58;25.83;;;13.43;;
28920;SDS011;16035;53.594;9.952;2022-10-31T07:59:59;22.33;;;12.23;;
28920;SDS011;16035;53.594;9.952;2022-10-31T08:02:00;22.93;;;12.03;;
28920;SDS011;16035;53.594;9.952;2022-10-31T08:04:00;21.67;;;13.23;;
28920;SDS011;16035;53.594;9.952;2022-10-31T08:06:00;21.97;;;11.27;;
28920;SDS011;16035;53.594;9.952;2022-10-31T08:08:01;20.97;;;11.37;;
28920;SDS011;16035;53.594;9.952;2022-10-31T08:10:01;22.85;;;11.82;;
28920;SDS011;16035;53.594;9.952;2022-10-31T08:12:02;19.67;;;11.70;;
28920;SDS011;16035;53.594;9.952;2022-10-31T08:14:03;21.80;;;12.30;;
28920;SDS011;16035;53.594;9.952;2022-10-31T08:16:03;24.70;;;12.90;;
28920;SDS011;16035;53.594;9.952;2022-10-31T08:18:04;21.05;;;11.88;;
28920;SDS011;16035;53.594;9.952;2022-10-31T08:20:06;19.13;;;12.43;;
28920;SDS011;16035;53.594;9.952;2022-10-31T08:22:06;21.15;;;12.07;;
28920;SDS011;16035;53.594;9.952;2022-10-31T08:24:07;20.70;;;12.43;;
28920;SDS011;16035;53.594;9.952;2022-10-31T08:26:07;24.00;;;13.20;;
28920;SDS011;16035;53.594;9.952;2022-10-31T08:28:08;18.53;;;10.93;;
28920;SDS011;16035;53.594;9.952;2022-10-31T08:30:10;20.23;;;12.48;;
28920;SDS011;16035;53.594;9.952;2022-10-31T08:32:10;20.23;;;11.13;;
28920;SDS011;16035;53.594;9.952;2022-10-31T08:34:11;21.10;;;10.63;;
28920;SDS011;16035;53.594;9.952;2022-10-31T08:36:11;22.37;;;12.20;;
28920;SDS011;16035;53.594;9.952;2022-10-31T08:38:12;21.50;;;13.43;;
28920;SDS011;16035;53.594;9.952;2022-10-31T08:40:12;24.92;;;12.68;;
28920;SDS011;16035;53.594;9.952;2022-10-31T08:42:13;25.53;;;12.70;;
28920;SDS011;16035;53.594;9.952;2022-10-31T08:44:13;22.30;;;12.07;;
28920;SDS011;16035;53.594;9.952;2022-10-31T08:46:15;23.08;;;11.88;;
28920;SDS011;16035;53.594;9.952;2022-10-31T08:48:16;21.05;;;11.88;;
28920;SDS011;16035;53.594;9.952;2022-10-31T08:50:17;20.73;;;11.73;;
28920;SDS011;16035;53.594;9.952;2022-10-31T08:52:18;22.48;;;12.98;;
28920;SDS011;16035;53.594;9.952;2022-10-31T08:54:18;18.47;;;11.23;;
28920;SDS011;16035;53.594;9.952;2022-10-31T08:56:19;20.60;;;11.33;;
28920;SDS011;16035;53.594;9.952;2022-10-31T08:58:19;21.57;;;12.47;;
28920;SDS011;16035;53.594;9.952;2022-10-31T09:00:20;22.50;;;11.18;;
28920;SDS011;16035;53.594;9.952;2022-10-31T09:02:20;18.67;;;10.70;;
28920;SDS011;16035;53.594;9.952;2022-10-31T09:04:20;24.07;;;11.80;;
28920;SDS011;16035;53.594;9.952;2022-10-31T09:06:21;18.30;;;11.10;;
28920;SDS011;16035;53.594;9.952;2022-10-31T09:08:22;23.83;;;12.50;;
28920;SDS011;16035;53.594;9.952;2022-10-31T09:10:23;18.92;;;12.13;;
28920;SDS011;16035;53.594;9.952;2022-10-31T09:12:24;21.13;;;12.77;;
28920;SDS011;16035;53.594;9.952;2022-10-31T09:14:25;18.80;;;11.97;;
28920;SDS011;16035;53.594;9.952;2022-10-31T09:16:25;21.70;;;11.37;;
28920;SDS011;16035;53.594;9.952;2022-10-31T09:18:25;20.87;;;10.57;;
28920;SDS011;16035;53.594;9.952;2022-10-31T09:20:32;20.08;;;10.93;;
28920;SDS011;16035;53.594;9.952;2022-10-31T09:22:33;20.40;;;11.60;;
28920;SDS011;16035;53.594;9.952;2022-10-31T09:24:33;20.53;;;11.37;;
28920;SDS011;16035;53.594;9.952;2022-10-31T09:26:34;21.10;;;12.73;;
28920;SDS011;16035;53.594;9.952;2022-10-31T09:28:34;24.30;;;13.23;;
28920;SDS011;16035;53.594;9.952;2022-10-31T09:30:35;21.53;;;12.33;;
28920;SDS011;16035;53.594;9.952;2022-10-31T09:32:35;23.73;;;12.57;;
28920;SDS011;16035;53.594;9.952;2022-10-31T09:34:38;19.38;;;11.85;;
28920;SDS011;16035;53.594;9.952;2022-10-31T09:36:38;24.20;;;12.57;;
28920;SDS011;16035;53.594;9.952;2022-10-31T09:38:39;25.70;;;13.17;;
28920;SDS011;16035;53.594;9.952;2022-10-31T09:42:56;23.08;;;13.55;;
28920;SDS011;16035;53.594;9.952;2022-10-31T09:47:30;23.35;;;13.43;;
28920;SDS011;16035;53.594;9.952;2022-10-31T09:52:24;27.60;;;14.15;;
28920;SDS011;16035;53.594;9.952;2022-10-31T09:54:28;21.65;;;12.85;;
28920;SDS011;16035;53.594;9.952;2022-10-31T09:56:35;24.15;;;12.75;;
28920;SDS011;16035;53.594;9.952;2022-10-31T09:58:39;27.63;;;13.75;;
28920;SDS011;16035;53.594;9.952;2022-10-31T10:00:43;26.73;;;13.82;;
28920;SDS011;16035;53.594;9.952;2022-10-31T10:02:59;24.67;;;12.15;;
28920;SDS011;16035;53.594;9.952;2022-10-31T10:05:02;21.15;;;11.73;;
28920;SDS011;16035;53.594;9.952;2022-10-31T10:07:11;19.70;;;11.70;;
28920;SDS011;16035;53.594;9.952;2022-10-31T10:09:16;22.73;;;11.82;;
28920;SDS011;16035;53.594;9.952;2022-10-31T10:16:09;23.15;;;12.52;;
28920;SDS011;16035;53.594;9.952;2022-10-31T10:18:23;21.50;;;11.35;;
28920;SDS011;16035;53.594;9.952;2022-10-31T10:20:41;21.95;;;11.10;;
28920;SDS011;16035;53.594;9.952;2022-10-31T10:22:57;18.23;;;10.88;;
28920;SDS011;16035;53.594;9.952;2022-10-31T10:25:07;18.05;;;10.30;;
28920;SDS011;16035;53.594;9.952;2022-10-31T10:29:52;25.13;;;12.27;;
28920;SDS011;16035;53.594;9.952;2022-10-31T10:31:58;27.88;;;12.85;;
28920;SDS011;16035;53.594;9.952;2022-10-31T10:36:11;24.42;;;11.27;;
28920;SDS011;16035;53.594;9.952;2022-10-31T10:40:18;19.73;;;10.73;;
28920;SDS011;16035;53.594;9.952;2022-10-31T10:42:21;20.30;;;11.15;;
28920;SDS011;16035;53.594;9.952;2022-10-31T10:44:45;18.73;;;9.95;;
28920;SDS011;16035;53.594;9.952;2022-10-31T10:47:07;19.88;;;11.05;;
28920;SDS011;16035;53.594;9.952;2022-10-31T10:49:33;19.60;;;10.55;;
28920;SDS011;16035;53.594;9.952;2022-10-31T10:56:17;17.92;;;9.57;;
28920;SDS011;16035;53.594;9.952;2022-10-31T10:58:25;17.98;;;9.70;;
28920;SDS011;16035;53.594;9.952;2022-10-31T11:00:27;19.83;;;9.77;;
28920;SDS011;16035;53.594;9.952;2022-10-31T11:02:31;19.58;;;10.57;;
28920;SDS011;16035;53.594;9.952;2022-10-31T11:04:33;19.83;;;10.02;;
28920;SDS011;16035;53.594;9.952;2022-10-31T11:06:35;20.02;;;9.38;;
28920;SDS011;16035;53.594;9.952;2022-10-31T11:08:36;18.80;;;8.77;;
28920;SDS011;16035;53.594;9.952;2022-10-31T11:10:36;16.75;;;9.13;;
28920;SDS011;16035;53.594;9.952;2022-10-31T11:12:37;16.45;;;7.55;;
28920;SDS011;16035;53.594;9.952;2022-10-31T11:14:45;17.17;;;9.37;;
28920;SDS011;16035;53.594;9.952;2022-10-31T11:16:50;15.50;;;7.55;;
28920;SDS011;16035;53.594;9.952;2022-10-31T11:19:04;16.77;;;8.27;;
28920;SDS011;16035;53.594;9.952;2022-10-31T11:21:25;17.48;;;8.43;;
28920;SDS011;16035;53.594;9.952;2022-10-31T11:23:28;12.13;;;7.88;;
28920;SDS011;16035;53.594;9.952;2022-10-31T11:25:29;13.85;;;8.23;;
28920;SDS011;16035;53.594;9.952;2022-10-31T11:27:29;14.80;;;8.17;;
28920;SDS011;16035;53.594;9.952;2022-10-31T11:29:30;16.03;;;7.67;;
28920;SDS011;16035;53.594;9.952;2022-10-31T11:31:30;16.40;;;9.00;;
28920;SDS011;16035;53.594;9.952;2022-10-31T11:33:34;14.15;;;7.50;;
28920;SDS011;16035;53.594;9.952;2022-10-31T11:35:38;15.30;;;9.55;;
28920;SDS011;16035;53.594;9.952;2022-10-31T11:37:41;19.48;;;9.30;;
28920;SDS011;16035;53.594;9.952;2022-10-31T11:39:44;15.98;;;9.65;;
28920;SDS011;16035;53.594;9.952;2022-10-31T11:41:53;13.48;;;8.27;;
28920;SDS011;16035;53.594;9.952;2022-10-31T11:43:55;12.52;;;7.68;;
28920;SDS011;16035;53.594;9.952;2022-10-31T11:45:58;13.23;;;8.48;;
28920;SDS011;16035;53.594;9.952;2022-10-31T11:47:59;17.77;;;10.10;;
28920;SDS011;16035;53.594;9.952;2022-10-31T11:50:02;16.67;;;9.82;;
28920;SDS011;16035;53.594;9.952;2022-10-31T11:54:26;18.33;;;9.10;;
28920;SDS011;16035;53.594;9.952;2022-10-31T11:56:39;17.98;;;11.18;;
28920;SDS011;16035;53.594;9.952;2022-10-31T12:00:47;22.97;;;14.37;;
28920;SDS011;16035;53.594;9.952;2022-10-31T12:02:50;25.95;;;16.48;;
28920;SDS011;16035;53.594;9.952;2022-10-31T12:05:17;26.80;;;16.15;;
28920;SDS011;16035;53.594;9.952;2022-10-31T12:07:18;32.28;;;19.30;;
28920;SDS011;16035;53.594;9.952;2022-10-31T12:09:32;27.87;;;17.20;;
28920;SDS011;16035;53.594;9.952;2022-10-31T12:14:00;31.70;;;17.05;;
28920;SDS011;16035;53.594;9.952;2022-10-31T12:16:20;26.33;;;16.07;;
28920;SDS011;16035;53.594;9.952;2022-10-31T12:30:24;34.38;;;16.73;;
28920;SDS011;16035;53.594;9.952;2022-10-31T12:39:28;28.48;;;15.55;;
28920;SDS011;16035;53.594;9.952;2022-10-31T12:46:28;30.20;;;17.25;;
28920;SDS011;16035;53.594;9.952;2022-10-31T12:57:44;27.90;;;16.52;;
28920;SDS011;16035;53.594;9.952;2022-10-31T12:59:59;33.08;;;17.85;;
28920;SDS011;16035;53.594;9.952;2022-10-31T13:02:02;30.17;;;16.88;;
28920;SDS011;16035;53.594;9.952;2022-10-31T13:08:42;25.63;;;15.45;;
28920;SDS011;16035;53.594;9.952;2022-10-31T13:10:53;44.80;;;24.85;;
28920;SDS011;16035;53.594;9.952;2022-10-31T13:13:06;33.38;;;18.92;;
28920;SDS011;16035;53.594;9.952;2022-10-31T13:15:21;31.80;;;19.10;;
28920;SDS011;16035;53.594;9.952;2022-10-31T13:17:31;31.60;;;16.95;;
28920;SDS011;16035;53.594;9.952;2022-10-31T13:19:38;30.55;;;16.92;;
28920;SDS011;16035;53.594;9.952;2022-10-31T13:21:57;31.73;;;16.67;;
28920;SDS011;16035;53.594;9.952;2022-10-31T13:24:03;28.60;;;16.15;;
28920;SDS011;16035;53.594;9.952;2022-10-31T13:26:09;30.30;;;16.67;;
28920;SDS011;16035;53.594;9.952;2022-10-31T13:28:23;28.98;;;16.05;;
28920;SDS011;16035;53.594;9.952;2022-10-31T13:30:44;35.95;;;17.40;;
28920;SDS011;16035;53.594;9.952;2022-10-31T13:32:47;34.30;;;18.63;;
28920;SDS011;16035;53.594;9.952;2022-10-31T13:34:53;33.75;;;17.85;;
28920;SDS011;16035;53.594;9.952;2022-10-31T13:39:20;31.58;;;18.30;;
28920;SDS011;16035;53.594;9.952;2022-10-31T13:46:20;29.83;;;17.27;;
28920;SDS011;16035;53.594;9.952;2022-10-31T13:48:36;27.85;;;16.63;;
28920;SDS011;16035;53.594;9.952;2022-10-31T13:50:39;26.33;;;15.07;;
28920;SDS011;16035;53.594;9.952;2022-10-31T13:52:39;33.22;;;16.83;;
28920;SDS011;16035;53.594;9.952;2022-10-31T13:54:44;21.10;;;13.37;;
28920;SDS011;16035;53.594;9.952;2022-10-31T13:56:52;26.48;;;14.35;;
28920;SDS011;16035;53.594;9.952;2022-10-31T14:01:19;29.45;;;15.68;;
28920;SDS011;16035;53.594;9.952;2022-10-31T14:03:21;27.40;;;14.55;;
28920;SDS011;16035;53.594;9.952;2022-10-31T14:05:26;26.13;;;14.55;;